Time;durP1;ratioP1;P1;durP2;ratioP2;P2;SDS_P1;SDS_P2;PMS_P1;PMS_P2;Temp;Humidity;BMP_temperature;BMP_pressure;BME280_temperature;BME280_humidity;BME280_pressure;Samples;Min_cycle;Max_cycle;Signal;HPM_P1;HPM_P2
2023/09/08 03:32:54;;;;;;;5.60;5.07;;;14.30;99.90;;;;;;5036704;22;21030;-66
2023/09/08 03:35:21;;;;;;;5.33;4.83;;;14.30;99.90;;;;;;5021952;28;20827;-66
2023/09/08 03:37:48;;;;;;;6.07;4.40;;;14.30;99.90;;;;;;5019285;28;20449;-66
2023/09/08 03:40:16;;;;;;;5.37;4.50;;;14.20;99.90;;;;;;5018626;28;20457;-65
2023/09/08 03:42:42;;;;;;;5.17;4.67;;;14.20;99.90;;;;;;5009861;28;20458;-66
2023/09/08 03:45:09;;;;;;;5.43;4.70;;;14.20;99.90;;;;;;5009611;28;20524;-66
2023/09/08 03:47:36;;;;;;;4.40;4.00;;;14.20;99.90;;;;;;5010221;28;20469;-66
2023/09/08 03:50:05;;;;;;;6.40;4.30;;;14.20;99.90;;;;;;5010496;28;20593;-67
2023/09/08 03:52:32;;;;;;;5.30;4.80;;;14.20;99.90;;;;;;5009872;28;20482;-67
2023/09/08 03:54:59;;;;;;;4.60;4.10;;;14.20;99.90;;;;;;5012175;28;20948;-66
2023/09/08 03:57:26;;;;;;;4.90;4.40;;;14.20;99.90;;;;;;5012307;28;21239;-67
2023/09/08 03:59:52;;;;;;;5.27;4.57;;;14.20;99.90;;;;;;5011910;28;20457;-66
2023/09/08 04:02:19;;;;;;;5.00;4.47;;;14.30;99.90;;;;;;5011756;28;20889;-66
2023/09/08 04:04:46;;;;;;;6.17;4.00;;;14.20;99.90;;;;;;5011695;28;20484;-67
2023/09/08 04:07:14;;;;;;;5.13;4.37;;;14.30;99.90;;;;;;5011948;28;20524;-66
2023/09/08 04:09:40;;;;;;;3.97;3.50;;;14.20;99.90;;;;;;5011963;28;20485;-66
2023/09/08 04:12:09;;;;;;;5.70;4.57;;;14.20;99.90;;;;;;5011862;28;20477;-67
2023/09/08 04:14:36;;;;;;;4.00;3.60;;;14.10;99.90;;;;;;5012268;28;20490;-66
2023/09/08 04:17:03;;;;;;;4.23;3.83;;;14.10;99.90;;;;;;5012249;28;20481;-67
2023/09/08 04:19:29;;;;;;;5.37;4.87;;;14.10;99.90;;;;;;5012965;28;20449;-66
2023/09/08 04:21:56;;;;;;;5.30;4.40;;;14.00;99.90;;;;;;5012145;28;20488;-66
2023/09/08 04:24:24;;;;;;;5.03;4.00;;;14.10;99.90;;;;;;5012344;28;20464;-67
2023/09/08 04:26:51;;;;;;;5.13;4.57;;;14.10;99.90;;;;;;5012210;28;20831;-66
2023/09/08 04:29:18;;;;;;;4.77;4.37;;;14.00;99.90;;;;;;5011271;28;20489;-66
2023/09/08 04:31:44;;;;;;;5.40;4.50;;;14.00;99.90;;;;;;5011916;28;20565;-66
2023/09/08 04:34:11;;;;;;;4.43;3.77;;;14.00;99.90;;;;;;5015073;28;20462;-66
2023/09/08 04:36:38;;;;;;;4.10;3.70;;;14.00;99.90;;;;;;5016210;28;20462;-66
2023/09/08 04:39:05;;;;;;;9.03;4.90;;;14.00;99.90;;;;;;5016043;28;20457;-66
2023/09/08 04:41:33;;;;;;;4.40;4.00;;;13.90;99.90;;;;;;5015099;28;20478;-66
2023/09/08 04:43:59;;;;;;;5.37;4.30;;;13.90;99.90;;;;;;5015774;28;20472;-67
2023/09/08 04:46:26;;;;;;;5.03;4.57;;;13.90;99.90;;;;;;5015511;28;20468;-66
2023/09/08 04:48:53;;;;;;;4.30;3.90;;;13.90;99.90;;;;;;5014845;28;20449;-67
2023/09/08 04:51:19;;;;;;;5.77;4.57;;;13.90;99.90;;;;;;5014412;28;20484;-66
2023/09/08 04:53:46;;;;;;;4.87;4.37;;;13.90;99.90;;;;;;5014449;28;20465;-66
2023/09/08 04:56:14;;;;;;;5.00;4.40;;;13.80;99.90;;;;;;5013755;28;20535;-66
2023/09/08 04:58:42;;;;;;;4.37;3.97;;;13.80;99.90;;;;;;5013999;28;20465;-66
2023/09/08 05:01:08;;;;;;;4.20;3.80;;;13.80;99.90;;;;;;5013597;28;20483;-66
2023/09/08 05:03:35;;;;;;;4.77;4.27;;;13.80;99.90;;;;;;5013986;28;20462;-67
2023/09/08 05:06:02;;;;;;;6.10;5.10;;;13.80;99.90;;;;;;5014258;28;20472;-66
2023/09/08 05:08:28;;;;;;;7.60;5.43;;;13.90;99.90;;;;;;5014278;28;20458;-66
2023/09/08 05:10:55;;;;;;;5.70;4.90;;;13.90;99.90;;;;;;5014129;28;20817;-66
2023/09/08 05:13:26;;;;;;;5.60;4.90;;;13.90;99.90;;;;;;5014041;28;20467;-66
2023/09/08 05:15:59;;;;;;;5.07;4.57;;;13.90;99.90;;;;;;5014733;28;20470;-67
2023/09/08 05:18:26;;;;;;;4.83;4.33;;;14.00;99.90;;;;;;5014893;28;20479;-66
2023/09/08 05:20:53;;;;;;;5.20;4.60;;;14.00;99.90;;;;;;5014005;28;20561;-66
2023/09/08 05:23:20;;;;;;;4.70;4.20;;;13.90;99.90;;;;;;5013773;28;20486;-66
2023/09/08 05:25:47;;;;;;;4.73;4.20;;;14.00;99.90;;;;;;5013736;28;20468;-66
2023/09/08 05:28:13;;;;;;;4.97;4.47;;;14.00;99.90;;;;;;5014100;28;20549;-66
2023/09/08 05:30:40;;;;;;;6.37;5.13;;;14.00;99.90;;;;;;5013363;28;20492;-66
2023/09/08 05:33:08;;;;;;;5.90;4.77;;;14.00;99.90;;;;;;5013607;28;20458;-66
2023/09/08 05:35:36;;;;;;;7.00;5.27;;;14.10;99.90;;;;;;5013442;28;20480;-66
2023/09/08 05:38:02;;;;;;;5.63;4.90;;;14.20;99.90;;;;;;5013491;28;20457;-66
2023/09/08 05:40:29;;;;;;;6.27;5.30;;;14.30;99.90;;;;;;5013813;28;21035;-66
2023/09/08 05:42:56;;;;;;;6.80;5.67;;;14.40;99.90;;;;;;5012387;28;20519;-66
2023/09/08 05:45:25;;;;;;;6.30;5.70;;;14.50;99.90;;;;;;5013860;28;20462;-67
2023/09/08 05:47:52;;;;;;;4.97;4.47;;;14.60;99.90;;;;;;5013731;28;20512;-66
2023/09/08 05:50:20;;;;;;;5.50;5.00;;;14.70;99.90;;;;;;5013278;28;20477;-66
2023/09/08 05:52:47;;;;;;;5.67;4.90;;;14.70;99.90;;;;;;5013100;28;20469;-66
2023/09/08 05:55:13;;;;;;;6.00;5.10;;;14.80;99.90;;;;;;5013975;28;20469;-66
2023/09/08 05:57:40;;;;;;;6.00;5.40;;;14.90;99.90;;;;;;5013533;28;20987;-66
2023/09/08 06:00:08;;;;;;;7.40;5.43;;;14.90;99.90;;;;;;5014112;28;20458;-67
2023/09/08 06:02:35;;;;;;;7.10;6.40;;;15.00;99.90;;;;;;5013195;28;20993;-66
2023/09/08 06:05:02;;;;;;;7.50;6.20;;;15.10;99.90;;;;;;5014453;28;20469;-66
2023/09/08 06:07:30;;;;;;;8.30;5.60;;;15.10;99.90;;;;;;5014461;28;20638;-66
2023/09/08 06:09:57;;;;;;;6.50;5.90;;;15.20;99.90;;;;;;5013938;28;20485;-66
2023/09/08 06:12:23;;;;;;;5.87;4.83;;;15.20;99.90;;;;;;5012738;28;20478;-66
2023/09/08 06:14:50;;;;;;;6.23;5.53;;;15.20;99.90;;;;;;5012718;28;20458;-66
2023/09/08 06:17:17;;;;;;;5.60;5.00;;;15.20;99.90;;;;;;5013555;28;20562;-66
2023/09/08 06:19:43;;;;;;;6.33;5.60;;;15.30;99.90;;;;;;5012675;28;20473;-66
2023/09/08 06:22:10;;;;;;;7.53;6.00;;;15.30;99.90;;;;;;5012411;28;20506;-66
2023/09/08 06:24:38;;;;;;;5.67;5.17;;;15.40;99.90;;;;;;5012741;28;20461;-66
2023/09/08 06:27:06;;;;;;;5.50;4.80;;;15.50;99.90;;;;;;5012802;28;20469;-66
2023/09/08 06:29:33;;;;;;;5.50;4.80;;;15.50;99.90;;;;;;5012976;28;20483;-66
2023/09/08 06:32:00;;;;;;;8.80;6.00;;;15.60;99.90;;;;;;5011618;28;20490;-66
2023/09/08 06:34:26;;;;;;;6.80;6.10;;;15.80;99.90;;;;;;5013086;28;20466;-66
2023/09/08 06:36:53;;;;;;;5.73;5.13;;;15.90;99.90;;;;;;5013059;28;21084;-66
2023/09/08 06:39:20;;;;;;;5.40;4.80;;;16.00;99.90;;;;;;5013500;28;20458;-66
2023/09/08 06:41:48;;;;;;;6.77;5.57;;;16.00;99.90;;;;;;5011876;28;20478;-66
2023/09/08 06:44:14;;;;;;;5.50;5.00;;;16.10;99.90;;;;;;5012348;28;20555;-66
2023/09/08 06:46:41;;;;;;;5.87;4.63;;;16.20;99.90;;;;;;5011998;28;20454;-66
2023/09/08 06:49:08;;;;;;;5.40;4.90;;;16.30;99.90;;;;;;5012066;28;20523;-66
2023/09/08 06:51:34;;;;;;;5.67;5.17;;;16.50;99.90;;;;;;5012088;28;20485;-66
2023/09/08 06:54:01;;;;;;;7.70;6.27;;;16.60;99.90;;;;;;5012111;28;20475;-66
2023/09/08 06:56:28;;;;;;;5.50;5.00;;;16.70;99.90;;;;;;5012453;28;20460;-66
2023/09/08 06:58:57;;;;;;;6.67;5.00;;;16.90;99.90;;;;;;5011681;28;20467;-66
2023/09/08 07:01:24;;;;;;;6.87;5.27;;;17.00;99.90;;;;;;5011825;28;20563;-66
2023/09/08 07:03:51;;;;;;;6.70;5.30;;;17.20;99.90;;;;;;5012760;28;20467;-66
2023/09/08 07:06:17;;;;;;;6.30;5.20;;;17.30;99.90;;;;;;5013272;28;20468;-66
2023/09/08 07:08:44;;;;;;;5.63;5.10;;;17.50;99.90;;;;;;5012862;28;20480;-66
2023/09/08 07:11:11;;;;;;;6.83;5.77;;;17.60;99.90;;;;;;5012556;28;20496;-66
2023/09/08 07:13:37;;;;;;;5.13;4.63;;;17.80;99.90;;;;;;5012871;28;20464;-66
2023/09/08 07:16:06;;;;;;;5.90;5.27;;;17.90;99.90;;;;;;5009170;28;20979;-66
2023/09/08 07:18:35;;;;;;;5.80;5.30;;;18.10;99.90;;;;;;5000480;28;20464;-66
2023/09/08 07:21:02;;;;;;;6.30;4.50;;;18.20;99.90;;;;;;5013142;28;20484;-66
2023/09/08 07:23:29;;;;;;;5.77;5.27;;;18.40;99.90;;;;;;5012798;28;20952;-67
2023/09/08 07:25:56;;;;;;;5.83;5.30;;;18.60;99.90;;;;;;5012802;28;20528;-66
2023/09/08 07:28:23;;;;;;;5.33;4.83;;;18.70;99.90;;;;;;5012839;28;20461;-66
2023/09/08 07:30:49;;;;;;;7.47;5.40;;;18.80;99.90;;;;;;5011978;28;20486;-67
2023/09/08 07:33:19;;;;;;;5.00;4.60;;;19.00;99.90;;;;;;5012382;28;20461;-67
2023/09/08 07:35:46;;;;;;;4.93;4.53;;;19.10;99.90;;;;;;5012808;28;20462;-67
2023/09/08 07:38:12;;;;;;;5.50;4.90;;;19.30;99.90;;;;;;5011993;28;20468;-67
2023/09/08 07:40:39;;;;;;;5.40;4.90;;;19.40;99.90;;;;;;5010769;28;20474;-68
2023/09/08 07:43:06;;;;;;;8.03;4.97;;;19.60;99.90;;;;;;5010569;28;20852;-68
2023/09/08 07:45:32;;;;;;;5.80;4.77;;;19.80;99.90;;;;;;5011459;28;20471;-68
2023/09/08 07:47:59;;;;;;;5.67;5.10;;;19.90;99.90;;;;;;5011100;28;20459;-68
2023/09/08 07:50:29;;;;;;;5.03;4.53;;;20.00;99.90;;;;;;5011075;28;20570;-68
2023/09/08 07:52:57;;;;;;;5.90;4.93;;;20.20;99.90;;;;;;5010086;28;20470;-67
2023/09/08 07:55:27;;;;;;;5.60;5.10;;;20.30;99.90;;;;;;5010925;28;20467;-72
2023/09/08 07:57:54;;;;;;;5.90;5.30;;;20.40;99.90;;;;;;5010258;28;20463;-71
2023/09/08 08:00:21;;;;;;;5.93;5.23;;;20.60;99.90;;;;;;5010507;28;20833;-73
2023/09/08 08:02:49;;;;;;;4.80;4.40;;;20.70;99.90;;;;;;5002057;28;20465;-72
2023/09/08 08:05:16;;;;;;;5.40;4.90;;;20.90;99.90;;;;;;5010812;28;20837;-71
2023/09/08 08:07:45;;;;;;;5.60;4.60;;;21.10;99.90;;;;;;5014675;28;20955;-68
2023/09/08 08:10:12;;;;;;;8.30;5.30;;;21.10;99.90;;;;;;5014563;28;20836;-71
2023/09/08 08:12:40;;;;;;;5.70;4.93;;;21.30;99.90;;;;;;5014321;28;20868;-69
2023/09/08 08:15:09;;;;;;;5.77;4.93;;;21.50;99.90;;;;;;5014317;28;20825;-71
2023/09/08 08:17:37;;;;;;;5.40;4.90;;;21.70;99.90;;;;;;5014915;28;20453;-72
2023/09/08 08:20:06;;;;;;;5.17;4.73;;;21.90;99.90;;;;;;5014659;28;20458;-76
2023/09/08 08:22:33;;;;;;;6.23;4.80;;;22.00;99.90;;;;;;5014101;28;20893;-75
2023/09/08 08:25:02;;;;;;;5.80;5.23;;;22.20;99.90;;;;;;5014286;28;20463;-71
2023/09/08 08:27:30;;;;;;;5.50;5.00;;;22.40;99.90;;;;;;5014103;28;20948;-68
2023/09/08 08:29:59;;;;;;;5.00;4.60;;;22.50;99.90;;;;;;5013846;28;20835;-68
2023/09/08 08:32:26;;;;;;;6.10;4.43;;;22.70;99.90;;;;;;5013453;28;21005;-68
2023/09/08 08:34:52;;;;;;;5.33;4.83;;;22.80;99.90;;;;;;5013750;28;20464;-68
2023/09/08 08:37:19;;;;;;;4.73;4.33;;;23.00;99.90;;;;;;5014167;28;20836;-68
2023/09/08 08:39:46;;;;;;;5.50;5.00;;;23.20;99.90;;;;;;5014057;28;20464;-68
2023/09/08 08:42:14;;;;;;;5.63;5.13;;;23.10;99.90;;;;;;5012738;28;20489;-68
2023/09/08 08:44:42;;;;;;;5.77;5.13;;;23.20;99.90;;;;;;5014019;28;20516;-68
2023/09/08 08:47:12;;;;;;;5.20;4.70;;;23.30;99.90;;;;;;5013762;28;20532;-68
2023/09/08 08:49:42;;;;;;;5.03;4.53;;;23.40;99.90;;;;;;5014284;28;20457;-68
2023/09/08 08:52:09;;;;;;;7.80;5.30;;;23.60;99.90;;;;;;5012805;28;20581;-68
2023/09/08 08:54:39;;;;;;;5.40;4.90;;;23.70;99.90;;;;;;5013461;28;20453;-68
2023/09/08 08:57:07;;;;;;;5.67;5.07;;;23.80;99.90;;;;;;5012776;28;20503;-68
2023/09/08 08:59:35;;;;;;;5.97;5.07;;;23.90;99.90;;;;;;5013635;28;20465;-68
2023/09/08 09:02:03;;;;;;;6.03;5.40;;;24.00;99.90;;;;;;5012899;28;20473;-68
2023/09/08 09:04:31;;;;;;;5.83;5.20;;;24.10;99.90;;;;;;5013570;28;20454;-68
2023/09/08 09:06:58;;;;;;;6.37;5.00;;;24.30;99.90;;;;;;5013657;28;20457;-68
2023/09/08 09:09:26;;;;;;;5.57;5.07;;;24.30;99.90;;;;;;5013796;28;20466;-68
2023/09/08 09:11:52;;;;;;;5.30;4.80;;;24.40;99.90;;;;;;5012976;28;20489;-68
2023/09/08 09:14:19;;;;;;;5.33;4.83;;;24.60;99.90;;;;;;5013810;28;20461;-68
2023/09/08 09:16:47;;;;;;;5.30;4.80;;;24.70;99.90;;;;;;5013356;28;20457;-68
2023/09/08 09:19:25;;;;;;;5.40;4.90;;;24.80;99.90;;;;;;5012535;28;20468;-68
2023/09/08 09:21:54;;;;;;;5.67;5.00;;;25.00;99.90;;;;;;5013134;28;20477;-68
2023/09/08 09:24:31;;;;;;;5.90;5.30;;;25.10;99.90;;;;;;5013043;28;20461;-68
2023/09/08 09:26:58;;;;;;;4.60;4.20;;;25.20;99.90;;;;;;5013204;28;20457;-68
2023/09/08 09:29:24;;;;;;;5.03;4.60;;;25.40;99.90;;;;;;5013135;28;20952;-68
2023/09/08 09:31:54;;;;;;;5.40;4.90;;;25.60;99.90;;;;;;5012569;28;20489;-68
2023/09/08 09:34:22;;;;;;;5.90;5.30;;;25.60;99.90;;;;;;5013039;28;20974;-68
2023/09/08 09:36:50;;;;;;;5.20;4.80;;;25.70;99.90;;;;;;5013300;28;20454;-68
2023/09/08 09:39:20;;;;;;;5.97;4.70;;;25.80;99.90;;;;;;5012606;28;20461;-68
2023/09/08 09:41:47;;;;;;;4.87;4.47;;;25.80;99.90;;;;;;5012700;28;20834;-68
2023/09/08 09:44:14;;;;;;;6.67;4.80;;;26.00;99.90;;;;;;5012848;28;20473;-68
2023/09/08 09:46:45;;;;;;;4.93;4.43;;;26.00;99.90;;;;;;5077031;22;20963;-66
2023/09/08 09:49:14;;;;;;;4.70;4.30;;;26.20;99.90;;;;;;5029381;28;20448;-66
2023/09/08 09:51:42;;;;;;;4.80;4.40;;;26.40;99.90;;;;;;5012142;28;20478;-66
2023/09/08 09:54:09;;;;;;;6.13;5.00;;;26.50;99.90;;;;;;5012322;28;20458;-66
2023/09/08 09:56:38;;;;;;;5.70;4.67;;;26.60;99.90;;;;;;5012598;28;20465;-68
2023/09/08 09:59:06;;;;;;;5.80;5.30;;;26.60;99.90;;;;;;5012569;28;20465;-66
2023/09/08 10:01:34;;;;;;;6.60;5.67;;;26.80;99.90;;;;;;5011920;28;20519;-66
2023/09/08 10:04:03;;;;;;;5.03;4.53;;;26.80;99.90;;;;;;5012243;28;20468;-66
2023/09/08 10:06:32;;;;;;;6.20;4.97;;;26.90;99.90;;;;;;5011914;28;20485;-66
2023/09/08 10:09:01;;;;;;;5.90;5.40;;;27.00;99.90;;;;;;5012100;28;21168;-66
2023/09/08 10:11:30;;;;;;;5.83;5.13;;;27.10;99.90;;;;;;5012160;28;20555;-66
2023/09/08 10:14:00;;;;;;;5.53;4.87;;;27.30;99.90;;;;;;5012299;28;20488;-66
2023/09/08 10:16:28;;;;;;;8.27;4.67;;;27.40;99.90;;;;;;5012243;28;20461;-66
2023/09/08 10:18:58;;;;;;;5.50;4.77;;;27.50;99.90;;;;;;5012798;28;20467;-67
2023/09/08 10:21:27;;;;;;;4.87;4.37;;;27.60;99.90;;;;;;5004390;28;20473;-66
2023/09/08 10:24:00;;;;;;;4.80;4.40;;;27.60;99.90;;;;;;5012447;28;20519;-67
2023/09/08 10:26:29;;;;;;;4.80;4.40;;;27.70;99.90;;;;;;5004976;28;20480;-67
2023/09/08 10:28:56;;;;;;;4.87;4.47;;;27.80;99.90;;;;;;5011967;28;20837;-67
2023/09/08 10:31:26;;;;;;;5.23;4.73;;;28.00;99.90;;;;;;5011500;28;20489;-67
2023/09/08 10:33:53;;;;;;;5.77;5.17;;;28.10;99.90;;;;;;5012280;28;20458;-67
2023/09/08 10:36:20;;;;;;;5.77;5.20;;;28.10;99.90;;;;;;5011954;28;20469;-66
2023/09/08 10:38:49;;;;;;;8.30;4.90;;;28.20;99.90;;;;;;5012030;28;20457;-67
2023/09/08 10:41:32;;;;;;;5.43;4.93;;;28.30;99.90;;;;;;5011198;28;20492;-66
2023/09/08 10:44:04;;;;;;;5.13;4.63;;;28.40;99.90;;;;;;5011672;28;20462;-67
2023/09/08 10:46:32;;;;;;;5.70;5.20;;;28.50;99.90;;;;;;5011108;28;20470;-67
2023/09/08 10:49:04;;;;;;;6.33;5.00;;;28.60;99.90;;;;;;5011896;28;20458;-66
2023/09/08 10:51:31;;;;;;;6.17;5.57;;;28.60;99.90;;;;;;5010813;28;20535;-66
2023/09/08 10:53:58;;;;;;;6.90;5.87;;;28.70;99.90;;;;;;5011497;28;20458;-67
2023/09/08 10:56:30;;;;;;;6.37;5.77;;;28.80;99.90;;;;;;5011406;28;20457;-67
2023/09/08 10:59:01;;;;;;;5.67;4.77;;;28.90;99.90;;;;;;5011499;28;20460;-67
2023/09/08 11:01:28;;;;;;;5.03;4.57;;;29.10;99.90;;;;;;5003640;28;20757;-67
2023/09/08 11:03:55;;;;;;;5.73;5.23;;;29.10;99.90;;;;;;5011796;28;20457;-67
2023/09/08 11:06:23;;;;;;;4.97;4.57;;;29.00;99.90;;;;;;5012127;28;20833;-67
2023/09/08 11:08:55;;;;;;;5.37;4.70;;;28.90;99.90;;;;;;5012804;28;20466;-66
2023/09/08 11:11:22;;;;;;;6.43;5.90;;;28.90;99.90;;;;;;5013092;28;20906;-66
2023/09/08 11:13:50;;;;;;;5.43;4.93;;;29.00;99.90;;;;;;5011267;28;20460;-66
2023/09/08 11:16:21;;;;;;;5.97;5.37;;;29.00;99.90;;;;;;5002768;28;20454;-66
2023/09/08 11:18:48;;;;;;;5.63;5.17;;;29.10;99.90;;;;;;5006179;28;20556;-66
2023/09/08 11:21:15;;;;;;;5.73;5.23;;;29.20;99.90;;;;;;5009000;28;21101;-67
2023/09/08 11:23:42;;;;;;;4.90;4.50;;;29.20;99.90;;;;;;5010299;28;20470;-66
2023/09/08 11:26:09;;;;;;;5.13;4.73;;;29.30;99.90;;;;;;5009185;28;20813;-67
2023/09/08 11:28:37;;;;;;;6.13;4.80;;;29.40;99.90;;;;;;5009613;28;20978;-67
2023/09/08 11:31:05;;;;;;;4.90;4.40;;;29.50;99.90;;;;;;5009579;28;20564;-66
2023/09/08 11:33:39;;;;;;;4.73;4.37;;;29.50;99.90;;;;;;5002649;28;21034;-66
2023/09/08 11:36:14;;;;;;;5.40;4.90;;;29.60;99.90;;;;;;5009663;28;20472;-66
2023/09/08 11:38:41;;;;;;;5.10;4.70;;;29.60;99.90;;;;;;5008758;28;20480;-66
2023/09/08 11:41:08;;;;;;;4.70;4.30;;;29.50;99.90;;;;;;5009771;28;20873;-65
2023/09/08 11:43:35;;;;;;;5.57;5.03;;;29.40;99.90;;;;;;5010340;28;20462;-66
2023/09/08 11:46:03;;;;;;;5.47;5.00;;;29.50;99.90;;;;;;5011072;28;20465;-66
2023/09/08 11:48:33;;;;;;;5.13;4.67;;;29.50;99.90;;;;;;5010490;28;20540;-66
2023/09/08 11:51:00;;;;;;;5.50;4.93;;;29.60;99.90;;;;;;5010456;28;20539;-66
2023/09/08 11:53:28;;;;;;;5.20;4.80;;;29.70;99.90;;;;;;5010254;28;20462;-67
2023/09/08 11:55:55;;;;;;;4.87;4.30;;;29.90;99.90;;;;;;5011301;28;20461;-66
2023/09/08 11:58:23;;;;;;;5.40;4.60;;;30.00;99.90;;;;;;5010489;28;20493;-67
2023/09/08 12:00:51;;;;;;;4.93;4.43;;;30.00;99.90;;;;;;5009487;28;20473;-66
2023/09/08 12:03:18;;;;;;;5.90;5.30;;;30.00;99.90;;;;;;5010327;28;20454;-66
2023/09/08 12:05:52;;;;;;;4.90;4.40;;;30.10;99.90;;;;;;5010509;28;20449;-67
2023/09/08 12:08:19;;;;;;;4.90;4.50;;;30.10;99.90;;;;;;5010368;28;20465;-67
2023/09/08 12:10:46;;;;;;;5.50;4.63;;;30.10;99.90;;;;;;5010001;28;20859;-66
2023/09/08 12:13:14;;;;;;;5.13;4.67;;;30.10;99.90;;;;;;5010157;28;20485;-67
2023/09/08 12:15:43;;;;;;;5.80;5.30;;;30.20;99.90;;;;;;5010146;28;20466;-67
2023/09/08 12:18:12;;;;;;;6.17;5.57;;;30.30;99.90;;;;;;5010244;28;20458;-66
2023/09/08 12:20:40;;;;;;;5.47;4.97;;;30.40;99.90;;;;;;5010428;28;20572;-66
2023/09/08 12:23:18;;;;;;;5.97;5.40;;;30.50;99.90;;;;;;5010276;28;20826;-67
2023/09/08 12:25:46;;;;;;;5.33;4.93;;;30.50;99.90;;;;;;5003244;28;20469;-66
2023/09/08 12:28:13;;;;;;;5.53;4.77;;;30.60;99.90;;;;;;5009601;28;20556;-66
2023/09/08 12:30:40;;;;;;;5.00;4.57;;;30.70;99.90;;;;;;5011079;28;20481;-66
2023/09/08 12:33:09;;;;;;;5.83;5.03;;;30.80;99.90;;;;;;5009451;28;20584;-66
2023/09/08 12:35:36;;;;;;;5.83;5.37;;;30.80;99.90;;;;;;5010228;28;20484;-65
2023/09/08 12:38:05;;;;;;;5.23;4.70;;;30.80;99.90;;;;;;5010228;28;20537;-65
2023/09/08 12:40:35;;;;;;;5.27;4.70;;;30.80;99.90;;;;;;5008917;28;20471;-66
2023/09/08 12:43:02;;;;;;;5.37;4.90;;;30.90;99.90;;;;;;5009518;28;20823;-66
2023/09/08 12:45:30;;;;;;;5.30;4.80;;;30.90;99.90;;;;;;5009687;28;20473;-64
2023/09/08 12:48:01;;;;;;;4.60;4.20;;;30.80;99.90;;;;;;5009567;28;20815;-66
2023/09/08 12:50:28;;;;;;;6.33;4.73;;;30.90;99.90;;;;;;5009476;28;20465;-65
2023/09/08 12:52:55;;;;;;;5.20;4.77;;;30.90;99.90;;;;;;5011048;28;20494;-65
2023/09/08 12:55:22;;;;;;;5.27;4.87;;;31.00;99.90;;;;;;5013182;28;20813;-66
2023/09/08 12:57:54;;;;;;;5.33;4.87;;;31.00;99.90;;;;;;5013040;28;20461;-65
2023/09/08 13:00:22;;;;;;;5.60;5.20;;;31.00;99.90;;;;;;5013108;28;20516;-66
2023/09/08 13:02:49;;;;;;;5.20;4.70;;;31.00;99.90;;;;;;5012300;28;20461;-66
2023/09/08 13:05:15;;;;;;;5.10;4.63;;;31.00;99.90;;;;;;5012800;28;20465;-66
2023/09/08 13:07:42;;;;;;;5.80;5.30;;;30.90;99.90;;;;;;5012818;28;20461;-66
2023/09/08 13:10:09;;;;;;;5.77;5.07;;;30.90;99.90;;;;;;5013042;28;21077;-66
2023/09/08 13:12:36;;;;;;;5.43;4.93;;;30.80;99.90;;;;;;5012280;28;20481;-65
2023/09/08 13:15:05;;;;;;;5.77;5.27;;;30.70;99.90;;;;;;5013102;28;20481;-65
2023/09/08 13:17:32;;;;;;;5.00;4.50;;;30.60;99.90;;;;;;5012122;28;20465;-66
2023/09/08 13:19:58;;;;;;;5.23;4.77;;;30.60;99.90;;;;;;5012813;28;20458;-65
2023/09/08 13:22:25;;;;;;;5.57;5.10;;;30.60;99.90;;;;;;5012180;28;20476;-65
2023/09/08 13:24:52;;;;;;;5.70;5.20;;;30.60;99.90;;;;;;5012456;28;20932;-66
2023/09/08 13:27:18;;;;;;;5.60;5.10;;;30.60;99.90;;;;;;5013181;28;20466;-66
2023/09/08 13:29:45;;;;;;;5.53;5.10;;;30.50;99.90;;;;;;5013142;28;20457;-65
2023/09/08 13:32:13;;;;;;;6.13;5.50;;;30.60;99.90;;;;;;5012603;28;20496;-65
2023/09/08 13:34:40;;;;;;;4.97;4.57;;;30.60;99.90;;;;;;5012563;28;20838;-65
2023/09/08 13:37:07;;;;;;;6.70;5.20;;;30.70;99.90;;;;;;5013191;28;20462;-66
2023/09/08 13:39:34;;;;;;;6.70;4.83;;;30.70;99.90;;;;;;5012509;28;21006;-66
2023/09/08 13:42:02;;;;;;;4.50;4.10;;;30.70;99.90;;;;;;5012526;28;20473;-65
2023/09/08 13:44:28;;;;;;;5.53;5.03;;;30.70;99.90;;;;;;5012745;28;20508;-65
2023/09/08 13:46:55;;;;;;;5.63;5.13;;;30.70;99.90;;;;;;5012798;28;20952;-65
2023/09/08 13:49:23;;;;;;;5.10;4.70;;;30.70;99.90;;;;;;5012568;28;20206;-66
2023/09/08 13:51:51;;;;;;;5.80;5.23;;;30.70;99.90;;;;;;5012096;28;20865;-66
2023/09/08 13:54:18;;;;;;;6.00;5.40;;;30.70;99.90;;;;;;5012437;28;20462;-65
2023/09/08 13:56:45;;;;;;;5.50;4.80;;;30.60;99.90;;;;;;5012981;28;20461;-65
2023/09/08 13:59:12;;;;;;;4.60;4.30;;;30.60;99.90;;;;;;5012527;28;20465;-65
2023/09/08 14:01:39;;;;;;;5.30;4.80;;;30.70;99.90;;;;;;5011559;28;20481;-65
2023/09/08 14:04:06;;;;;;;5.20;4.70;;;30.70;99.90;;;;;;5012026;28;20457;-66
2023/09/08 14:06:34;;;;;;;6.00;5.00;;;30.70;99.90;;;;;;5012105;28;20492;-65
2023/09/08 14:09:02;;;;;;;5.23;4.80;;;30.80;99.90;;;;;;5012364;28;20464;-65
2023/09/08 14:11:29;;;;;;;5.37;4.97;;;30.90;99.90;;;;;;5011687;28;20582;-66
2023/09/08 14:13:56;;;;;;;4.73;4.33;;;30.90;99.90;;;;;;5012119;28;21035;-66
2023/09/08 14:16:23;;;;;;;4.50;4.10;;;30.80;99.90;;;;;;5012076;28;20561;-65
2023/09/08 14:18:49;;;;;;;4.77;4.37;;;30.80;99.90;;;;;;5012159;28;20460;-66
2023/09/08 14:21:16;;;;;;;4.90;4.50;;;30.80;99.90;;;;;;5011654;28;20477;-65
2023/09/08 14:23:44;;;;;;;5.43;4.97;;;30.70;99.90;;;;;;5011802;28;20461;-65
2023/09/08 14:26:11;;;;;;;4.93;4.43;;;30.70;99.90;;;;;;5012330;28;20460;-65
2023/09/08 14:28:37;;;;;;;4.63;4.30;;;30.70;99.90;;;;;;5012084;28;20460;-66
2023/09/08 14:31:04;;;;;;;4.90;4.50;;;30.70;99.90;;;;;;5011771;28;20478;-66
2023/09/08 14:33:31;;;;;;;4.83;4.43;;;30.70;99.90;;;;;;5011110;28;20485;-66
2023/09/08 14:35:58;;;;;;;4.77;4.33;;;30.70;99.90;;;;;;5012139;28;20516;-66
2023/09/08 14:38:25;;;;;;;4.83;4.43;;;30.70;99.90;;;;;;5011847;28;20458;-65
2023/09/08 14:40:58;;;;;;;4.80;4.40;;;30.60;99.90;;;;;;5010512;28;20995;-66
2023/09/08 14:43:25;;;;;;;5.23;4.70;;;30.50;99.90;;;;;;5011251;28;20453;-65
2023/09/08 14:45:52;;;;;;;4.70;4.30;;;30.50;99.90;;;;;;5011653;28;20465;-66
2023/09/08 14:48:19;;;;;;;4.60;4.20;;;30.40;99.90;;;;;;5011929;28;20819;-66
2023/09/08 14:50:46;;;;;;;4.40;4.00;;;30.30;99.90;;;;;;5011442;28;20478;-66
2023/09/08 14:53:13;;;;;;;5.17;4.63;;;30.40;99.90;;;;;;5011420;28;20484;-65
2023/09/08 14:55:40;;;;;;;4.60;4.20;;;30.40;99.90;;;;;;5011475;28;20457;-65
2023/09/08 14:58:08;;;;;;;6.20;4.70;;;30.40;99.90;;;;;;5011948;28;20457;-65
2023/09/08 15:00:35;;;;;;;4.47;4.07;;;30.40;99.90;;;;;;5011366;28;20500;-66
2023/09/08 15:03:04;;;;;;;4.20;3.80;;;30.30;99.90;;;;;;5011078;28;21113;-65
2023/09/08 15:05:31;;;;;;;4.97;4.40;;;30.30;99.90;;;;;;5011285;28;20885;-65
2023/09/08 15:07:58;;;;;;;4.77;4.27;;;30.10;99.90;;;;;;5011771;28;20468;-66
2023/09/08 15:10:24;;;;;;;4.60;4.20;;;30.10;99.90;;;;;;5011508;28;20469;-66
2023/09/08 15:12:51;;;;;;;6.03;4.17;;;30.00;99.90;;;;;;5002865;28;20477;-66
2023/09/08 15:15:23;;;;;;;4.40;4.00;;;29.90;99.90;;;;;;5010397;28;20480;-65
2023/09/08 15:17:50;;;;;;;4.93;4.53;;;29.90;99.90;;;;;;5010977;28;20474;-66
2023/09/08 15:20:17;;;;;;;4.30;3.80;;;29.90;99.90;;;;;;5011299;28;20610;-65
2023/09/08 15:22:44;;;;;;;4.70;4.30;;;29.80;99.90;;;;;;5009993;28;20453;-66
2023/09/08 15:25:10;;;;;;;5.30;4.80;;;29.80;99.90;;;;;;5011069;28;20512;-65
2023/09/08 15:27:37;;;;;;;4.60;4.20;;;29.80;99.90;;;;;;5010615;28;20458;-65
2023/09/08 15:30:05;;;;;;;4.67;4.27;;;29.60;99.90;;;;;;5010844;28;20461;-65
2023/09/08 15:32:33;;;;;;;4.13;3.83;;;29.60;99.90;;;;;;5009999;28;20485;-65
2023/09/08 15:35:00;;;;;;;5.07;4.57;;;29.50;99.90;;;;;;5009827;28;20461;-65
2023/09/08 15:37:26;;;;;;;4.70;4.13;;;29.50;99.90;;;;;;5010621;28;20469;-66
2023/09/08 15:39:53;;;;;;;4.77;4.37;;;29.40;99.90;;;;;;5002425;28;20464;-66
2023/09/08 15:42:20;;;;;;;4.90;4.20;;;29.40;99.90;;;;;;5009974;28;20477;-65
2023/09/08 15:44:47;;;;;;;5.53;4.07;;;29.40;99.90;;;;;;5010397;28;20457;-65
2023/09/08 15:50:34;;;;;;;4.77;4.30;;;29.30;99.90;;;;;;5040552;28;20470;-92
2023/09/08 15:53:08;;;;;;;4.57;4.17;;;29.20;99.90;;;;;;5026997;28;20438;-92
2023/09/08 15:58:17;;;;;;;3.80;3.50;;;29.10;99.90;;;;;;5011306;22;20494;-66
2023/09/08 16:00:43;;;;;;;4.40;4.00;;;29.10;99.90;;;;;;4985930;28;20491;-67
2023/09/08 16:03:10;;;;;;;4.60;4.20;;;29.00;99.90;;;;;;4970139;28;20479;-65
2023/09/08 16:05:38;;;;;;;4.40;4.00;;;29.00;99.90;;;;;;4978771;28;20466;-67
2023/09/08 16:08:06;;;;;;;4.60;4.20;;;28.90;99.90;;;;;;4990084;28;20494;-67
2023/09/08 16:10:32;;;;;;;5.10;4.33;;;28.80;99.90;;;;;;4989527;28;20485;-67
2023/09/08 16:13:00;;;;;;;4.60;4.20;;;28.80;99.90;;;;;;4989517;28;20461;-67
2023/09/08 16:15:28;;;;;;;4.50;4.10;;;28.70;99.90;;;;;;4990028;28;20849;-67
2023/09/08 16:17:54;;;;;;;4.70;4.27;;;28.60;99.90;;;;;;4989798;28;20885;-67
2023/09/08 16:20:21;;;;;;;4.63;4.23;;;28.60;99.90;;;;;;4989750;28;20857;-67
2023/09/08 16:22:50;;;;;;;4.47;4.07;;;28.50;99.90;;;;;;4970821;28;20490;-66
2023/09/08 16:25:17;;;;;;;4.93;4.43;;;28.40;99.90;;;;;;4976404;28;20476;-66
2023/09/08 16:27:44;;;;;;;4.60;4.20;;;28.40;99.90;;;;;;4990644;28;20462;-67